createdAt,value
2018-06-14T00:02:07.107Z,101255.94
2018-06-14T00:04:36.518Z,101252.73
2018-06-14T00:07:05.604Z,101260.25
2018-06-14T00:09:34.894Z,101255.52
2018-06-14T00:12:04.560Z,101261.10
2018-06-14T00:14:33.974Z,101257.63
2018-06-14T00:17:03.445Z,101260.36
2018-06-14T00:19:32.823Z,101257.91
2018-06-14T00:22:02.284Z,101246.94
2018-06-14T00:24:32.103Z,101252.19
2018-06-14T00:27:01.526Z,101244.55
2018-06-14T00:29:32.412Z,101246.45
2018-06-14T00:32:01.810Z,101244.92
2018-06-14T00:34:31.281Z,101243.83
2018-06-14T00:37:00.825Z,101253.76
2018-06-14T00:39:30.241Z,101249.62
2018-06-14T00:41:59.688Z,101260.20
2018-06-14T00:44:29.179Z,101256.56
2018-06-14T00:46:58.970Z,101257.67
2018-06-14T00:49:28.473Z,101246.70
2018-06-14T00:51:58.413Z,101257.23
2018-06-14T00:54:27.787Z,101254.25
2018-06-14T00:57:14.267Z,101260.92
2018-06-14T00:59:43.577Z,101256.92
2018-06-14T01:02:12.953Z,101255.44
2018-06-14T01:04:42.249Z,101245.21
2018-06-14T01:07:11.726Z,101247.82
2018-06-14T01:09:41.009Z,101252.23
2018-06-14T01:12:10.442Z,101252.00
2018-06-14T01:14:39.757Z,101253.73
2018-06-14T01:17:09.752Z,101253.59
2018-06-14T01:19:39.089Z,101259.78
2018-06-14T01:22:08.383Z,101256.87
2018-06-14T01:24:37.668Z,101255.20
2018-06-14T01:27:10.226Z,101254.78
2018-06-14T01:29:39.621Z,101261.29
2018-06-14T01:32:08.709Z,101265.33
2018-06-14T01:34:38.045Z,101261.99
2018-06-14T01:37:07.381Z,101259.85
2018-06-14T01:39:36.651Z,101253.11
2018-06-14T01:42:06.231Z,101258.00
2018-06-14T01:44:35.587Z,101253.38
2018-06-14T01:47:05.078Z,101252.97
2018-06-14T01:49:35.053Z,101253.38
2018-06-14T01:52:04.497Z,101248.83
2018-06-14T01:54:33.918Z,101245.85
2018-06-14T01:57:03.330Z,101239.41
2018-06-14T01:59:32.715Z,101245.92
2018-06-14T02:02:02.056Z,101249.89
2018-06-14T02:04:31.440Z,101247.84
2018-06-14T02:07:00.818Z,101245.80
2018-06-14T02:09:30.303Z,101243.13
2018-06-14T02:11:59.759Z,101238.20
2018-06-14T02:14:29.182Z,101237.77
2018-06-14T02:16:58.653Z,101236.67
2018-06-14T02:19:28.026Z,101241.25
2018-06-14T02:21:57.434Z,101239.76
2018-06-14T02:24:26.698Z,101241.92
2018-06-14T02:26:56.070Z,101242.36
2018-06-14T02:29:25.334Z,101241.17
2018-06-14T02:31:54.617Z,101239.11
2018-06-14T02:34:24.362Z,101242.27
2018-06-14T02:36:53.765Z,101242.77
2018-06-14T02:39:23.057Z,101228.97
2018-06-14T02:41:52.370Z,101222.03
2018-06-14T02:44:21.821Z,101221.33
2018-06-14T02:46:51.167Z,101229.63
2018-06-14T02:49:20.576Z,101224.05
2018-06-14T02:51:50.057Z,101225.85
2018-06-14T02:54:19.395Z,101221.50
2018-06-14T02:56:48.851Z,101226.39
2018-06-14T02:59:18.198Z,101229.92
2018-06-14T03:01:47.581Z,101227.36
2018-06-14T03:04:17.016Z,101231.28
2018-06-14T03:06:46.330Z,101220.47
2018-06-14T03:09:15.788Z,101218.84
2018-06-14T03:11:45.160Z,101220.25
2018-06-14T03:14:14.719Z,101215.06
2018-06-14T03:16:44.038Z,101213.31
2018-06-14T03:19:13.328Z,101220.27
2018-06-14T03:21:42.714Z,101215.06
2018-06-14T03:24:11.992Z,101212.78
2018-06-14T03:26:42.449Z,101218.95
2018-06-14T03:29:11.726Z,101217.99
2018-06-14T03:31:41.519Z,101217.17
2018-06-14T03:34:10.806Z,101210.72
2018-06-14T03:36:40.207Z,101212.50
2018-06-14T03:39:11.043Z,101216.34
2018-06-14T03:41:44.202Z,101213.45
2018-06-14T03:44:13.557Z,101210.38
2018-06-14T03:46:43.987Z,101206.17
2018-06-14T03:49:13.308Z,101210.39
2018-06-14T03:51:42.631Z,101216.73
2018-06-14T03:54:12.045Z,101215.59
2018-06-14T03:56:41.848Z,101209.03
2018-06-14T03:59:11.141Z,101213.64
2018-06-14T04:01:40.501Z,101215.48
2018-06-14T04:04:09.820Z,101211.42
2018-06-14T04:06:39.224Z,101215.48
2018-06-14T04:09:10.511Z,101213.67
2018-06-14T04:11:40.139Z,101219.50
2018-06-14T04:14:09.572Z,101214.81
2018-06-14T04:16:39.070Z,101208.35
2018-06-14T04:19:08.379Z,101207.77
2018-06-14T04:21:37.864Z,101211.71
2018-06-14T04:24:08.291Z,101201.73
2018-06-14T04:26:37.743Z,101200.03
2018-06-14T04:29:07.036Z,101201.58
2018-06-14T04:31:36.416Z,101199.70
2018-06-14T04:34:05.913Z,101201.14
2018-06-14T04:36:35.218Z,101197.45
2018-06-14T04:39:06.874Z,101203.22
2018-06-14T04:41:36.463Z,101204.08
2018-06-14T04:44:05.983Z,101201.34
2018-06-14T04:46:35.335Z,101199.53
2018-06-14T04:49:04.751Z,101195.48
2018-06-14T04:51:39.346Z,101186.33
2018-06-14T04:54:08.947Z,101195.02
2018-06-14T04:56:38.231Z,101195.30
2018-06-14T04:59:07.540Z,101191.61
2018-06-14T05:01:37.873Z,101190.33
2018-06-14T05:04:07.346Z,101193.24
2018-06-14T05:06:36.735Z,101187.13
2018-06-14T05:09:10.469Z,101188.30
2018-06-14T05:11:40.284Z,101181.63
2018-06-14T05:14:09.883Z,101180.38
2018-06-14T05:16:39.728Z,101180.25
2018-06-14T05:19:09.035Z,101182.42
2018-06-14T05:21:38.356Z,101181.73
2018-06-14T05:24:07.660Z,101174.99
2018-06-14T05:26:37.064Z,101179.02
2018-06-14T05:29:06.477Z,101177.22
2018-06-14T05:31:35.586Z,101181.16
2018-06-14T05:34:05.103Z,101183.18
2018-06-14T05:36:34.559Z,101187.14
2018-06-14T05:39:04.315Z,101189.97
2018-06-14T05:41:33.778Z,101183.94
2018-06-14T05:44:03.329Z,101177.66
2018-06-14T05:46:33.012Z,101187.23
2018-06-14T05:49:02.618Z,101181.22
2018-06-14T05:51:32.279Z,101176.45
2018-06-14T05:54:01.677Z,101171.93
2018-06-14T05:56:31.103Z,101171.15
2018-06-14T05:59:00.534Z,101176.20
2018-06-14T06:01:30.052Z,101173.58
2018-06-14T06:03:59.620Z,101165.86
2018-06-14T06:06:30.073Z,101168.14
2018-06-14T06:08:59.473Z,101167.02
2018-06-14T06:11:28.979Z,101161.85
2018-06-14T06:13:58.162Z,101162.64
2018-06-14T06:16:27.695Z,101160.09
2018-06-14T06:18:57.027Z,101154.22
2018-06-14T06:21:26.342Z,101163.89
2018-06-14T06:23:55.666Z,101154.84
2018-06-14T06:26:25.219Z,101155.80
2018-06-14T06:28:54.537Z,101158.70
2018-06-14T06:31:24.013Z,101153.31
2018-06-14T06:33:53.418Z,101154.21
2018-06-14T06:36:22.741Z,101156.26
2018-06-14T06:38:51.999Z,101153.12
2018-06-14T06:41:21.309Z,101147.34
2018-06-14T06:43:50.713Z,101145.84
2018-06-14T06:46:20.051Z,101149.83
2018-06-14T06:48:50.427Z,101150.55
2018-06-14T06:51:19.890Z,101160.03
2018-06-14T06:53:49.177Z,101145.97
2018-06-14T06:56:18.261Z,101145.05
2018-06-14T06:58:47.583Z,101140.34
2018-06-14T07:01:16.926Z,101140.28
2018-06-14T07:03:46.245Z,101137.45
2018-06-14T07:06:15.609Z,101138.16
2018-06-14T07:08:44.848Z,101147.53
2018-06-14T07:11:14.200Z,101134.73
2018-06-14T07:13:50.097Z,101138.67
2018-06-14T07:16:19.419Z,101132.93
2018-06-14T07:18:48.691Z,101133.87
2018-06-14T07:21:18.001Z,101133.38
2018-06-14T07:23:47.356Z,101136.30
2018-06-14T07:26:16.623Z,101125.64
2018-06-14T07:28:45.916Z,101131.03
2018-06-14T07:31:15.260Z,101135.02
2018-06-14T07:33:44.547Z,101137.90
2018-06-14T07:36:13.867Z,101119.88
2018-06-14T07:38:43.284Z,101120.84
2018-06-14T07:41:12.605Z,101124.03
2018-06-14T07:43:41.933Z,101121.27
2018-06-14T07:46:11.241Z,101117.06
2018-06-14T07:48:40.494Z,101114.94
2018-06-14T07:51:10.295Z,101122.42
2018-06-14T07:53:39.649Z,101122.42
2018-06-14T07:56:08.915Z,101115.14
2018-06-14T07:58:38.193Z,101118.20
2018-06-14T08:01:07.597Z,101111.16
2018-06-14T08:03:36.895Z,101116.26
2018-06-14T08:06:06.178Z,101112.22
2018-06-14T08:08:35.590Z,101111.69
2018-06-14T08:11:04.994Z,101106.18
2018-06-14T08:13:34.587Z,101108.98
2018-06-14T08:16:04.013Z,101107.36
2018-06-14T08:18:33.485Z,101097.73
2018-06-14T08:21:02.847Z,101101.80
2018-06-14T08:23:32.744Z,101097.61
2018-06-14T08:26:02.125Z,101096.40
2018-06-14T08:28:31.531Z,101097.58
2018-06-14T08:31:01.869Z,101087.57
2018-06-14T08:33:31.493Z,101085.65
2018-06-14T08:36:00.921Z,101082.02
2018-06-14T08:38:30.421Z,101076.31
2018-06-14T08:40:59.818Z,101079.72
2018-06-14T08:43:31.164Z,101085.34
2018-06-14T08:46:00.758Z,101079.53
2018-06-14T08:48:30.223Z,101070.81
2018-06-14T08:51:03.424Z,101072.43
2018-06-14T08:53:35.274Z,101081.48
2018-06-14T08:56:07.823Z,101074.03
2018-06-14T08:58:38.291Z,101070.41
2018-06-14T09:01:07.708Z,101069.62
2018-06-14T09:03:40.457Z,101079.90
2018-06-14T09:06:15.169Z,101077.57
2018-06-14T09:08:47.312Z,101071.44
2018-06-14T09:11:25.601Z,101063.20
2018-06-14T09:13:54.921Z,101065.58
2018-06-14T09:16:24.249Z,101069.70
2018-06-14T09:18:53.578Z,101068.74
2018-06-14T09:21:22.981Z,101076.34
2018-06-14T09:23:52.475Z,101058.05
2018-06-14T09:26:27.694Z,101047.06
2018-06-14T09:29:00.276Z,101057.38
2018-06-14T09:31:29.838Z,101058.40
2018-06-14T09:33:59.289Z,101064.09
2018-06-14T09:36:31.407Z,101069.45
2018-06-14T09:39:09.371Z,101057.45
2018-06-14T09:41:39.525Z,101054.46
2018-06-14T09:44:08.847Z,101061.65
2018-06-14T09:46:38.257Z,101065.05
2018-06-14T09:49:09.714Z,101066.59
2018-06-14T09:51:39.240Z,101058.79
2018-06-14T09:54:08.543Z,101056.15
2018-06-14T09:56:37.833Z,101058.07
2018-06-14T09:59:07.582Z,101073.20
2018-06-14T10:01:36.945Z,101074.52
2018-06-14T10:04:06.787Z,101063.40
2018-06-14T10:06:36.192Z,101056.02
2018-06-14T10:09:09.643Z,101057.31
2018-06-14T10:11:39.073Z,101062.23
2018-06-14T10:14:08.694Z,101059.05
2018-06-14T10:16:38.009Z,101060.19
2018-06-14T10:19:07.325Z,101062.84
2018-06-14T10:21:36.690Z,101052.44
2018-06-14T10:24:06.167Z,101046.63
2018-06-14T10:26:35.517Z,101049.71
2018-06-14T10:29:04.989Z,101054.89
2018-06-14T10:31:39.988Z,101063.11
2018-06-14T10:34:09.306Z,101051.33
2018-06-14T10:36:38.613Z,101067.56
2018-06-14T10:39:08.914Z,101052.29
2018-06-14T10:41:39.624Z,101049.20
2018-06-14T10:44:10.992Z,101050.13
2018-06-14T10:46:42.926Z,101053.81
2018-06-14T10:49:15.501Z,101046.89
2018-06-14T10:51:46.958Z,101042.23
2018-06-14T10:54:17.566Z,101035.81
2018-06-14T10:56:46.919Z,101039.33
2018-06-14T10:59:16.942Z,101035.55
2018-06-14T11:01:46.211Z,101035.74
2018-06-14T11:04:16.604Z,101033.86
2018-06-14T11:06:49.413Z,101028.38
2018-06-14T11:09:25.682Z,101030.66
2018-06-14T11:12:02.749Z,101029.45
2018-06-14T11:14:40.276Z,101031.20
2018-06-14T11:17:18.494Z,101020.70
2018-06-14T11:19:48.370Z,101026.73
2018-06-14T11:22:21.066Z,101021.71
2018-06-14T11:24:50.437Z,101020.72
2018-06-14T11:27:20.142Z,101017.25
2018-06-14T11:29:49.665Z,101021.59
2018-06-14T11:32:18.954Z,101015.55
2018-06-14T11:34:48.226Z,101018.07
2018-06-14T11:37:17.578Z,101014.42
2018-06-14T11:39:47.050Z,101010.63
2018-06-14T11:42:16.379Z,101001.08
2018-06-14T11:44:45.755Z,101011.41
2018-06-14T11:47:15.180Z,101004.05
2018-06-14T11:49:44.450Z,100999.86
2018-06-14T11:52:13.811Z,101002.45
2018-06-14T11:54:43.115Z,100995.28
2018-06-14T11:57:12.427Z,100993.54
2018-06-14T11:59:41.513Z,100990.45
2018-06-14T12:02:10.910Z,100993.45
2018-06-14T12:04:40.222Z,100991.48
2018-06-14T12:07:09.719Z,100986.78
2018-06-14T12:09:39.051Z,100982.83
2018-06-14T12:12:08.321Z,100985.23
2018-06-14T12:14:37.674Z,100983.77
2018-06-14T12:17:07.213Z,100979.16
2018-06-14T12:19:36.568Z,100968.03
2018-06-14T12:22:05.909Z,100971.32
2018-06-14T12:24:35.446Z,100966.38
2018-06-14T12:27:05.020Z,100979.20
2018-06-14T12:29:34.440Z,100973.94
2018-06-14T12:32:03.995Z,100964.01
2018-06-14T12:34:33.393Z,100964.41
2018-06-14T12:37:02.809Z,100962.06
2018-06-14T12:39:32.220Z,100960.02
2018-06-14T12:42:01.607Z,100965.72
2018-06-14T12:44:31.043Z,100955.49
2018-06-14T12:47:03.381Z,100959.17
2018-06-14T12:49:36.629Z,100953.25
2018-06-14T12:52:08.139Z,100951.80
2018-06-14T12:54:46.927Z,100955.06
2018-06-14T12:57:17.486Z,100950.56
2018-06-14T12:59:46.829Z,100941.92
2018-06-14T13:02:17.119Z,100951.27
2018-06-14T13:04:46.657Z,100952.47
2018-06-14T13:07:16.023Z,100946.70
2018-06-14T13:09:45.394Z,100941.51
2018-06-14T13:12:14.717Z,100943.43
2018-06-14T13:14:44.031Z,100944.41
2018-06-14T13:17:13.423Z,100945.84
2018-06-14T13:19:42.756Z,100952.84
2018-06-14T13:22:12.857Z,100944.13
2018-06-14T13:24:44.045Z,100939.59
2018-06-14T13:27:15.788Z,100942.60
2018-06-14T13:29:45.111Z,100944.06
2018-06-14T13:32:15.355Z,100931.48
2018-06-14T13:34:48.213Z,100940.12
2018-06-14T13:37:17.993Z,100931.39
2018-06-14T13:39:47.281Z,100932.91
2018-06-14T13:42:18.485Z,100936.07
2018-06-14T13:44:50.791Z,100937.62
2018-06-14T13:47:20.208Z,100938.70
2018-06-14T13:49:49.640Z,100934.47
2018-06-14T13:52:20.962Z,100937.84
2018-06-14T13:54:53.333Z,100929.38
2018-06-14T13:57:23.915Z,100935.09
2018-06-14T13:59:54.244Z,100937.48
2018-06-14T14:02:32.645Z,100942.65
2018-06-14T14:05:05.230Z,100939.00
2018-06-14T14:07:34.441Z,100939.27
2018-06-14T14:10:03.921Z,100939.58
2018-06-14T14:12:33.653Z,100940.34
2018-06-14T14:15:03.416Z,100944.09
2018-06-14T14:17:33.471Z,100943.41
2018-06-14T14:20:03.045Z,100944.73
2018-06-14T14:22:32.618Z,100937.21
2018-06-14T14:25:02.055Z,100951.23
2018-06-14T14:27:31.748Z,100947.23
2018-06-14T14:30:01.198Z,100952.02
2018-06-14T14:32:30.754Z,100951.27
2018-06-14T14:35:00.412Z,100959.34
2018-06-14T14:37:29.796Z,100960.98
2018-06-14T14:39:59.215Z,100957.31
2018-06-14T14:42:28.591Z,100959.22
2018-06-14T14:44:58.678Z,100962.29
2018-06-14T14:47:28.184Z,100966.02
2018-06-14T14:49:57.484Z,100961.41
2018-06-14T14:52:26.788Z,100962.81
2018-06-14T14:54:56.105Z,100958.81
2018-06-14T14:57:25.421Z,100966.33
2018-06-14T14:59:54.822Z,100959.54
2018-06-14T15:02:24.146Z,100965.94
2018-06-14T15:04:54.343Z,100968.59
2018-06-14T15:07:23.696Z,100974.23
2018-06-14T15:09:53.142Z,100977.84
2018-06-14T15:12:22.462Z,100980.64
2018-06-14T15:14:51.901Z,100989.39
2018-06-14T15:17:21.557Z,100988.14
2018-06-14T15:19:51.058Z,100993.86
2018-06-14T15:22:20.357Z,100999.84
2018-06-14T15:24:49.886Z,100994.62
2018-06-14T15:27:19.886Z,100993.64
2018-06-14T15:29:49.249Z,100999.60
2018-06-14T15:32:18.711Z,101002.73
2018-06-14T15:34:48.019Z,101001.71
2018-06-14T15:37:17.398Z,101001.34
2018-06-14T15:39:46.756Z,101005.37
2018-06-14T15:42:16.225Z,101009.39
2018-06-14T15:44:45.575Z,101004.73
2018-06-14T15:47:14.875Z,101016.33
2018-06-14T15:49:44.228Z,101016.50
2018-06-14T15:52:13.718Z,101009.75
2018-06-14T15:54:43.122Z,101016.73
2018-06-14T15:57:12.508Z,101023.13
2018-06-14T15:59:41.894Z,101022.98
2018-06-14T16:02:11.301Z,101020.86
2018-06-14T16:04:40.611Z,101014.03
2018-06-14T16:07:10.077Z,101024.81
2018-06-14T16:09:39.543Z,101020.26
2018-06-14T16:12:09.592Z,101027.41
2018-06-14T16:14:39.111Z,101025.98
2018-06-14T16:17:09.052Z,101034.61
2018-06-14T16:19:38.928Z,101038.64
2018-06-14T16:22:10.581Z,101035.47
2018-06-14T16:24:40.241Z,101033.31
2018-06-14T16:27:09.899Z,101037.41
2018-06-14T16:29:39.734Z,101041.06
2018-06-14T16:32:09.526Z,101042.00
2018-06-14T16:34:39.358Z,101045.66
2018-06-14T16:37:09.312Z,101050.06
2018-06-14T16:39:38.871Z,101046.50
2018-06-14T16:42:08.524Z,101045.73
2018-06-14T16:44:37.945Z,101048.59
2018-06-14T16:47:07.390Z,101042.78
2018-06-14T16:49:36.721Z,101040.23
2018-06-14T16:52:06.122Z,101043.33
2018-06-14T16:54:35.566Z,101041.86
2018-06-14T16:57:05.278Z,101042.95
2018-06-14T16:59:34.769Z,101043.95
2018-06-14T17:02:04.408Z,101037.37
2018-06-14T17:04:34.015Z,101038.00
2018-06-14T17:07:03.599Z,101036.06
2018-06-14T17:09:32.948Z,101038.23
2018-06-14T17:12:02.384Z,101036.05
2018-06-14T17:14:31.850Z,101039.86
2018-06-14T17:17:01.444Z,101035.42
2018-06-14T17:19:31.311Z,101026.77
2018-06-14T17:22:00.742Z,101027.86
2018-06-14T17:24:30.358Z,101029.63
2018-06-14T17:26:59.871Z,101030.72
2018-06-14T17:29:29.400Z,101038.16
2018-06-14T17:31:58.872Z,101035.58
2018-06-14T17:34:28.277Z,101036.62
2018-06-14T17:36:58.254Z,101042.86
2018-06-14T17:39:27.894Z,101043.49
2018-06-14T17:41:58.240Z,101043.95
2018-06-14T17:44:27.923Z,101040.46
2018-06-14T17:46:57.495Z,101042.70
2018-06-14T17:49:27.115Z,101047.81
2018-06-14T17:51:56.761Z,101050.13
2018-06-14T17:54:26.248Z,101050.84
2018-06-14T17:56:55.757Z,101048.81
2018-06-14T17:59:30.876Z,101052.23
2018-06-14T18:02:02.291Z,101049.83
2018-06-14T18:04:32.163Z,101055.84
2018-06-14T18:07:01.849Z,101053.98
2018-06-14T18:09:31.800Z,101064.58
2018-06-14T18:12:04.688Z,101065.56
2018-06-14T18:14:40.189Z,101070.51
2018-06-14T18:17:12.205Z,101062.52
2018-06-14T18:19:41.541Z,101065.22
2018-06-14T18:22:15.445Z,101064.88
2018-06-14T18:24:45.960Z,101061.39
2018-06-14T18:27:18.713Z,101066.53
2018-06-14T18:29:49.401Z,101068.73
2018-06-14T18:32:25.763Z,101071.61
2018-06-14T18:35:08.871Z,101069.29
2018-06-14T18:37:41.070Z,101068.98
2018-06-14T18:40:10.988Z,101078.90
2018-06-14T18:42:40.768Z,101077.59
2018-06-14T18:45:10.875Z,101073.82
2018-06-14T18:47:41.020Z,101078.99
2018-06-14T18:50:10.611Z,101072.80
2018-06-14T18:52:40.211Z,101075.62
2018-06-14T18:55:10.332Z,101080.48
2018-06-14T18:57:40.906Z,101087.30
2018-06-14T19:00:10.649Z,101086.45
2018-06-14T19:02:40.183Z,101085.75
2018-06-14T19:05:11.110Z,101084.37
2018-06-14T19:07:55.264Z,101089.57
2018-06-14T19:10:27.478Z,101094.89
2018-06-14T19:13:07.314Z,101091.13
2018-06-14T19:15:41.994Z,101085.16
2018-06-14T19:18:15.619Z,101095.00
2018-06-14T19:20:53.158Z,101096.38
2018-06-14T19:23:25.521Z,101098.55
2018-06-14T19:25:55.026Z,101092.61
2018-06-14T19:28:24.379Z,101095.38
2018-06-14T19:31:06.361Z,101100.34
2018-06-14T19:33:36.045Z,101106.55
2018-06-14T19:36:07.042Z,101111.48
2018-06-14T19:38:57.313Z,101106.55
2018-06-14T19:41:27.350Z,101102.66
2018-06-14T19:44:00.697Z,101103.83
2018-06-14T19:46:31.830Z,101109.09
2018-06-14T19:49:01.767Z,101109.46
2018-06-14T19:51:32.799Z,101114.27
2018-06-14T19:54:02.823Z,101119.76
2018-06-14T19:56:32.656Z,101122.25
2018-06-14T19:59:02.995Z,101120.53
2018-06-14T20:01:33.024Z,101130.51
2018-06-14T20:04:03.192Z,101128.50
2018-06-14T20:06:33.332Z,101127.88
2018-06-14T20:09:03.883Z,101134.23
2018-06-14T20:11:33.959Z,101136.31
2018-06-14T20:14:03.983Z,101140.72
2018-06-14T20:16:33.701Z,101149.78
2018-06-14T20:19:03.124Z,101152.32
2018-06-14T20:21:32.763Z,101146.52
2018-06-14T20:24:02.485Z,101151.23
2018-06-14T20:26:32.067Z,101152.09
2018-06-14T20:29:01.820Z,101145.60
2018-06-14T20:31:31.359Z,101140.97
2018-06-14T20:34:00.998Z,101150.55
2018-06-14T20:36:30.733Z,101149.41
2018-06-14T20:39:00.355Z,101153.72
2018-06-14T20:41:29.901Z,101149.95
2018-06-14T20:43:59.511Z,101158.98
2018-06-14T20:46:29.730Z,101154.64
2018-06-14T20:48:59.226Z,101156.89
2018-06-14T20:51:28.789Z,101161.70
2018-06-14T20:53:58.248Z,101161.47
2018-06-14T20:56:32.239Z,101167.88
2018-06-14T20:59:01.909Z,101170.05
2018-06-14T21:01:31.801Z,101175.85
2018-06-14T21:04:01.574Z,101170.78
2018-06-14T21:06:31.277Z,101168.41
2018-06-14T21:09:00.824Z,101170.94
2018-06-14T21:11:30.451Z,101172.28
2018-06-14T21:14:00.074Z,101177.52
2018-06-14T21:16:29.700Z,101177.89
2018-06-14T21:19:03.170Z,101178.00
2018-06-14T21:21:35.184Z,101173.44
2018-06-14T21:24:07.977Z,101179.52
2018-06-14T21:26:45.994Z,101183.02
2018-06-14T21:29:15.396Z,101180.38
2018-06-14T21:31:45.014Z,101175.53
2018-06-14T21:34:33.830Z,101174.44
2018-06-14T21:37:12.216Z,101170.33
2018-06-14T21:39:48.084Z,101174.83
2018-06-14T21:42:17.575Z,101172.28
2018-06-14T21:44:48.029Z,101178.30
2018-06-14T21:47:17.413Z,101174.03
2018-06-14T21:49:46.692Z,101169.95
2018-06-14T21:52:15.956Z,101174.48
2018-06-14T21:54:45.291Z,101169.74
2018-06-14T21:57:14.719Z,101182.56
2018-06-14T21:59:44.001Z,101176.77
2018-06-14T22:02:13.271Z,101179.18
2018-06-14T22:04:42.534Z,101174.78
2018-06-14T22:07:13.841Z,101187.67
2018-06-14T22:09:45.690Z,101184.89
2018-06-14T22:15:12.672Z,101184.62
2018-06-14T22:17:41.978Z,101182.91
2018-06-14T22:20:11.054Z,101184.43
2018-06-14T22:22:40.551Z,101188.33
2018-06-14T22:25:09.908Z,101190.25
2018-06-14T22:27:39.337Z,101189.64
2018-06-14T22:30:08.772Z,101186.27
2018-06-14T22:32:38.073Z,101194.19
2018-06-14T22:35:29.045Z,101196.28
2018-06-14T22:37:58.933Z,101192.21
2018-06-14T22:40:28.245Z,101196.28
2018-06-14T22:42:57.590Z,101195.83
2018-06-14T22:45:26.893Z,101200.02
2018-06-14T22:47:56.178Z,101198.78
2018-06-14T22:50:43.161Z,101195.80
2018-06-14T22:53:13.408Z,101198.66
2018-06-14T22:55:42.881Z,101198.22
2018-06-14T22:58:12.158Z,101192.41
2018-06-14T23:01:45.534Z,101186.05
2018-06-14T23:04:16.366Z,101191.24
2018-06-14T23:06:45.770Z,101189.77
2018-06-14T23:13:32.721Z,101181.03
2018-06-14T23:16:08.650Z,101187.95
2018-06-14T23:18:38.082Z,101181.89
2018-06-14T23:21:07.391Z,101187.14
2018-06-14T23:23:36.774Z,101189.85
2018-06-14T23:26:11.719Z,101187.03
2018-06-14T23:28:46.332Z,101183.73
2018-06-14T23:31:22.856Z,101188.67
2018-06-14T23:33:55.429Z,101189.36
2018-06-14T23:36:25.214Z,101189.53
2018-06-14T23:38:54.590Z,101187.44
2018-06-14T23:41:24.017Z,101185.75
2018-06-14T23:43:53.498Z,101183.63
2018-06-14T23:46:22.835Z,101188.99
2018-06-14T23:48:52.350Z,101189.77
2018-06-14T23:51:21.451Z,101189.13
2018-06-14T23:53:50.876Z,101183.17
2018-06-14T23:56:20.178Z,101188.48
2018-06-14T23:58:50.490Z,101186.34
